createdAt,value
2019-01-04T00:00:36.183Z,102623.00
2019-01-04T00:03:07.215Z,102630.00
2019-01-04T00:05:38.953Z,102643.00
2019-01-04T00:08:09.999Z,102655.00
2019-01-04T00:10:45.521Z,102650.00
2019-01-04T00:13:16.847Z,102638.00
2019-01-04T00:15:51.305Z,102633.00
2019-01-04T00:18:22.512Z,102639.00
2019-01-04T00:20:53.531Z,102640.00
2019-01-04T00:23:25.025Z,102648.00
2019-01-04T00:25:56.037Z,102656.00
2019-01-04T00:28:27.194Z,102651.00
2019-01-04T00:30:58.218Z,102639.00
2019-01-04T00:33:29.838Z,102631.00
2019-01-04T00:36:00.711Z,102625.00
2019-01-04T00:38:31.601Z,102629.00
2019-01-04T00:41:02.759Z,102621.00
2019-01-04T00:43:34.202Z,102639.00
2019-01-04T00:46:05.264Z,102643.00
2019-01-04T00:48:36.517Z,102632.00
2019-01-04T00:51:07.681Z,102626.00
2019-01-04T00:53:38.843Z,102619.00
2019-01-04T00:56:46.445Z,102629.00
2019-01-04T01:00:43.702Z,102625.00
2019-01-04T01:03:57.247Z,102633.00
2019-01-04T01:07:27.244Z,102629.00
2019-01-04T01:10:39.959Z,102619.00
2019-01-04T01:13:54.008Z,102616.00
2019-01-04T01:17:19.006Z,102608.00
2019-01-04T01:20:43.700Z,102598.00
2019-01-04T01:24:19.538Z,102606.00
2019-01-04T01:27:55.535Z,102603.00
2019-01-04T01:31:31.606Z,102610.00
2019-01-04T01:35:07.342Z,102612.00
2019-01-04T01:38:33.471Z,102619.00
2019-01-04T01:42:16.697Z,102627.00
2019-01-04T01:46:01.375Z,102616.00
2019-01-04T01:49:17.138Z,102605.00
2019-01-04T01:52:03.941Z,102593.00
2019-01-04T01:54:34.813Z,102590.00
2019-01-04T01:57:05.897Z,102594.00
2019-01-04T01:59:36.893Z,102593.00
2019-01-04T02:02:07.818Z,102592.00
2019-01-04T02:04:38.785Z,102584.00
2019-01-04T02:07:09.667Z,102587.00
2019-01-04T02:09:40.537Z,102573.00
2019-01-04T02:12:11.615Z,102574.00
2019-01-04T02:14:42.475Z,102560.00
2019-01-04T02:17:13.581Z,102561.00
2019-01-04T02:19:44.500Z,102555.00
2019-01-04T02:22:15.413Z,102554.00
2019-01-04T02:24:46.405Z,102552.00
2019-01-04T02:27:17.407Z,102560.00
2019-01-04T02:29:50.000Z,102559.00
2019-01-04T02:32:23.415Z,102560.00
2019-01-04T02:34:54.411Z,102558.00
2019-01-04T02:37:25.449Z,102551.00
2019-01-04T02:39:56.519Z,102553.00
2019-01-04T02:42:27.425Z,102542.00
2019-01-04T02:44:58.425Z,102540.00
2019-01-04T02:47:29.601Z,102540.00
2019-01-04T02:50:00.545Z,102544.00
2019-01-04T02:52:32.544Z,102540.00
2019-01-04T02:55:03.367Z,102525.00
2019-01-04T02:57:34.262Z,102525.00
2019-01-04T03:00:06.170Z,102508.00
2019-01-04T03:02:37.406Z,102519.00
2019-01-04T03:05:08.472Z,102513.00
2019-01-04T03:07:39.352Z,102512.00
2019-01-04T03:10:10.376Z,102502.00
2019-01-04T03:12:41.265Z,102492.00
2019-01-04T03:15:12.186Z,102500.00
2019-01-04T03:17:43.842Z,102495.00
2019-01-04T03:20:14.847Z,102492.00
2019-01-04T03:22:45.713Z,102498.00
2019-01-04T03:25:16.552Z,102488.00
2019-01-04T03:27:47.440Z,102495.00
2019-01-04T03:30:18.356Z,102492.00
2019-01-04T03:32:49.263Z,102498.00
2019-01-04T03:35:20.091Z,102497.00
2019-01-04T03:37:50.950Z,102494.00
2019-01-04T03:40:21.862Z,102476.00
2019-01-04T03:42:52.812Z,102471.00
2019-01-04T03:45:23.687Z,102457.00
2019-01-04T03:47:54.567Z,102451.00
2019-01-04T03:50:25.520Z,102445.00
2019-01-04T03:52:56.417Z,102441.00
2019-01-04T03:55:27.369Z,102444.00
2019-01-04T03:57:58.357Z,102437.00
2019-01-04T04:00:29.297Z,102433.00
2019-01-04T04:03:00.330Z,102428.00
2019-01-04T04:05:31.196Z,102417.00
2019-01-04T04:08:02.186Z,102415.00
2019-01-04T04:10:33.061Z,102422.00
2019-01-04T04:13:03.933Z,102416.00
2019-01-04T04:15:34.860Z,102420.00
2019-01-04T04:18:05.858Z,102424.00
2019-01-04T04:20:36.766Z,102414.00
2019-01-04T04:23:07.759Z,102421.00
2019-01-04T04:25:38.720Z,102409.00
2019-01-04T04:28:09.771Z,102409.00
2019-01-04T04:30:40.987Z,102406.00
2019-01-04T04:33:12.081Z,102399.00
2019-01-04T04:35:44.475Z,102387.00
2019-01-04T04:38:15.480Z,102387.00
2019-01-04T04:40:46.530Z,102378.00
2019-01-04T04:43:17.698Z,102368.00
2019-01-04T04:45:48.831Z,102373.00
2019-01-04T04:48:19.918Z,102372.00
2019-01-04T04:50:50.974Z,102367.00
2019-01-04T04:53:21.964Z,102376.00
2019-01-04T04:55:52.834Z,102364.00
2019-01-04T04:58:23.859Z,102362.00
2019-01-04T05:00:54.876Z,102365.00
2019-01-04T05:03:25.742Z,102373.00
2019-01-04T05:05:56.587Z,102377.00
2019-01-04T05:08:27.522Z,102366.00
2019-01-04T05:10:58.460Z,102364.00
2019-01-04T05:13:29.354Z,102370.00
2019-01-04T05:16:00.254Z,102366.00
2019-01-04T05:18:31.184Z,102357.00
2019-01-04T05:21:02.187Z,102354.00
2019-01-04T05:23:33.153Z,102342.00
2019-01-04T05:26:04.061Z,102351.00
2019-01-04T05:28:34.958Z,102351.00
2019-01-04T05:31:05.846Z,102351.00
2019-01-04T05:33:36.875Z,102339.00
2019-01-04T05:36:07.859Z,102332.00
2019-01-04T05:38:41.681Z,102341.00
2019-01-04T05:41:12.561Z,102345.00
2019-01-04T05:43:43.519Z,102340.00
2019-01-04T05:46:14.375Z,102333.00
2019-01-04T05:48:45.299Z,102334.00
2019-01-04T05:51:16.403Z,102328.00
2019-01-04T05:53:47.383Z,102338.00
2019-01-04T05:56:18.342Z,102330.00
2019-01-04T05:58:50.197Z,102324.00
2019-01-04T06:01:21.074Z,102322.00
2019-01-04T06:03:52.211Z,102320.00
2019-01-04T06:06:23.105Z,102308.00
2019-01-04T06:08:56.720Z,102314.00
2019-01-04T06:11:27.721Z,102313.00
2019-01-04T06:13:58.795Z,102310.00
2019-01-04T06:16:29.858Z,102300.00
2019-01-04T06:19:01.642Z,102297.00
2019-01-04T06:21:32.577Z,102284.00
2019-01-04T06:24:03.557Z,102273.00
2019-01-04T06:26:34.545Z,102285.00
2019-01-04T06:29:05.604Z,102273.00
2019-01-04T06:31:36.711Z,102275.00
2019-01-04T06:34:07.732Z,102276.00
2019-01-04T06:36:38.727Z,102274.00
2019-01-04T06:39:09.887Z,102272.00
2019-01-04T06:41:45.139Z,102274.00
2019-01-04T06:44:17.668Z,102273.00
2019-01-04T06:47:28.623Z,102269.00
2019-01-04T06:50:03.033Z,102252.00
2019-01-04T06:52:34.071Z,102240.00
2019-01-04T06:56:03.346Z,102252.00
2019-01-04T06:58:34.389Z,102243.00
2019-01-04T07:01:05.727Z,102253.00
2019-01-04T07:03:38.365Z,102254.00
2019-01-04T07:06:09.437Z,102242.00
2019-01-04T07:08:40.376Z,102248.00
2019-01-04T07:11:11.723Z,102245.00
2019-01-04T07:13:42.609Z,102248.00
2019-01-04T07:16:15.788Z,102238.00
2019-01-04T07:18:48.747Z,102241.00
2019-01-04T07:21:20.943Z,102238.00
2019-01-04T07:23:51.897Z,102237.00
2019-01-04T07:26:22.854Z,102243.00
2019-01-04T07:28:53.682Z,102247.00
2019-01-04T07:31:24.611Z,102247.00
2019-01-04T07:33:55.549Z,102243.00
2019-01-04T07:36:26.427Z,102249.00
2019-01-04T07:38:57.327Z,102238.00
2019-01-04T07:41:28.253Z,102236.00
2019-01-04T07:44:01.515Z,102232.00
2019-01-04T07:46:32.471Z,102230.00
2019-01-04T07:49:03.368Z,102222.00
2019-01-04T07:51:34.398Z,102218.00
2019-01-04T07:54:05.595Z,102224.00
2019-01-04T07:56:37.587Z,102227.00
2019-01-04T07:59:08.740Z,102220.00
2019-01-04T08:01:39.788Z,102221.00
2019-01-04T08:04:13.540Z,102229.00
2019-01-04T08:06:44.837Z,102237.00
2019-01-04T08:09:15.693Z,102236.00
2019-01-04T08:11:46.822Z,102225.00
2019-01-04T08:14:18.068Z,102223.00
2019-01-04T08:16:48.998Z,102220.00
2019-01-04T08:19:20.129Z,102218.00
2019-01-04T08:21:51.268Z,102223.00
2019-01-04T08:24:22.263Z,102213.00
2019-01-04T08:26:53.596Z,102219.00
2019-01-04T08:29:26.332Z,102211.00
2019-01-04T08:31:58.296Z,102213.00
2019-01-04T08:34:29.186Z,102226.00
2019-01-04T08:37:00.814Z,102200.00
2019-01-04T08:39:32.980Z,102218.00
2019-01-04T08:42:08.488Z,102221.00
2019-01-04T08:44:41.828Z,102223.00
2019-01-04T08:47:12.954Z,102219.00
2019-01-04T08:49:51.818Z,102209.00
2019-01-04T08:52:25.322Z,102204.00
2019-01-04T08:54:56.237Z,102205.00
2019-01-04T08:57:28.944Z,102201.00
2019-01-04T08:59:59.966Z,102205.00
2019-01-04T09:02:45.297Z,102201.00
2019-01-04T09:05:18.834Z,102196.00
2019-01-04T09:07:49.998Z,102209.00
2019-01-04T09:10:20.946Z,102182.00
2019-01-04T09:12:54.108Z,102164.00
2019-01-04T09:15:27.238Z,102184.00
2019-01-04T09:18:05.279Z,102178.00
2019-01-04T09:20:38.091Z,102178.00
2019-01-04T09:23:09.438Z,102157.00
2019-01-04T09:26:32.808Z,102141.00
2019-01-04T09:29:04.239Z,102160.00
2019-01-04T09:31:35.340Z,102170.00
2019-01-04T09:34:06.691Z,102172.00
2019-01-04T09:36:37.600Z,102161.00
2019-01-04T09:39:10.510Z,102151.00
2019-01-04T09:41:58.256Z,102139.00
2019-01-04T09:44:33.088Z,102137.00
2019-01-04T09:47:04.656Z,102143.00
2019-01-04T09:49:35.712Z,102111.00
2019-01-04T09:52:07.785Z,102112.00
2019-01-04T09:54:38.956Z,102110.00
2019-01-04T09:57:13.073Z,102101.00
2019-01-04T09:59:45.200Z,102087.00
2019-01-04T10:02:16.096Z,102084.00
2019-01-04T10:04:47.161Z,102073.00
2019-01-04T10:07:18.162Z,102084.00
2019-01-04T10:09:49.148Z,102081.00
2019-01-04T10:12:21.496Z,102075.00
2019-01-04T10:14:52.738Z,102072.00
2019-01-04T10:17:24.504Z,102072.00
2019-01-04T10:19:55.454Z,102072.00
2019-01-04T10:22:26.355Z,102061.00
2019-01-04T10:24:57.538Z,102056.00
2019-01-04T10:27:28.388Z,102058.00
2019-01-04T10:29:59.448Z,102052.00
2019-01-04T10:32:30.362Z,102030.00
2019-01-04T10:35:01.594Z,102029.00
2019-01-04T10:37:35.442Z,102026.00
2019-01-04T10:40:13.038Z,102016.00
2019-01-04T10:42:44.016Z,102017.00
2019-01-04T10:45:15.007Z,102009.00
2019-01-04T10:47:46.462Z,101995.00
2019-01-04T10:50:21.785Z,101972.00
2019-01-04T10:52:53.046Z,101984.00
2019-01-04T10:55:24.074Z,101968.00
2019-01-04T10:57:54.994Z,101958.00
2019-01-04T11:00:28.821Z,101950.00
2019-01-04T11:02:59.743Z,101959.00
2019-01-04T11:05:40.385Z,101962.00
2019-01-04T11:08:11.322Z,101961.00
2019-01-04T11:10:42.236Z,101948.00
2019-01-04T11:13:15.609Z,101930.00
2019-01-04T11:15:47.366Z,101925.00
2019-01-04T11:18:18.727Z,101947.00
2019-01-04T11:20:50.343Z,101921.00
2019-01-04T11:24:11.128Z,101920.00
2019-01-04T11:27:07.943Z,101904.00
2019-01-04T11:30:38.612Z,101907.00
2019-01-04T11:33:21.844Z,101917.00
2019-01-04T11:36:54.017Z,101912.00
2019-01-04T11:40:29.337Z,101904.00
2019-01-04T11:43:49.347Z,101890.00
2019-01-04T11:47:12.205Z,101890.00
2019-01-04T11:50:19.072Z,101909.00
2019-01-04T11:52:59.959Z,101892.00
2019-01-04T11:55:31.142Z,101884.00
2019-01-04T11:58:06.869Z,101876.00
2019-01-04T12:00:37.751Z,101875.00
2019-01-04T12:03:08.952Z,101876.00
2019-01-04T12:05:40.083Z,101881.00
2019-01-04T12:08:11.107Z,101885.00
2019-01-04T12:10:42.065Z,101872.00
2019-01-04T12:13:13.139Z,101860.00
2019-01-04T12:15:44.911Z,101856.00
2019-01-04T12:18:15.866Z,101861.00
2019-01-04T12:20:46.761Z,101870.00
2019-01-04T12:23:17.646Z,101865.00
2019-01-04T12:25:48.605Z,101870.00
2019-01-04T12:28:19.461Z,101891.00
2019-01-04T12:30:50.383Z,101884.00
2019-01-04T12:33:21.275Z,101877.00
2019-01-04T12:35:52.132Z,101890.00
2019-01-04T12:38:23.125Z,101880.00
2019-01-04T12:40:54.139Z,101875.00
2019-01-04T12:43:25.030Z,101892.00
2019-01-04T12:45:57.455Z,101842.00
2019-01-04T12:48:29.704Z,101873.00
2019-01-04T12:51:00.847Z,101862.00
2019-01-04T12:53:32.024Z,101869.00
2019-01-04T12:56:03.153Z,101861.00
2019-01-04T12:58:34.307Z,101871.00
2019-01-04T13:01:05.416Z,101861.00
2019-01-04T13:03:36.603Z,101864.00
2019-01-04T13:06:07.981Z,101852.00
2019-01-04T13:08:40.198Z,101862.00
2019-01-04T13:11:11.881Z,101854.00
2019-01-04T13:13:43.481Z,101856.00
2019-01-04T13:16:14.394Z,101861.00
2019-01-04T13:18:45.363Z,101844.00
2019-01-04T13:21:16.422Z,101839.00
2019-01-04T13:23:50.630Z,101837.00
2019-01-04T13:26:21.565Z,101833.00
2019-01-04T13:28:54.211Z,101835.00
2019-01-04T13:31:25.141Z,101862.00
2019-01-04T13:33:56.112Z,101844.00
2019-01-04T13:36:29.509Z,101857.00
2019-01-04T13:39:00.401Z,101849.00
2019-01-04T13:41:35.425Z,101845.00
2019-01-04T13:44:07.961Z,101853.00
2019-01-04T13:46:38.948Z,101858.00
2019-01-04T13:49:10.241Z,101869.00
2019-01-04T13:51:42.206Z,101844.00
2019-01-04T13:54:13.342Z,101847.00
2019-01-04T13:56:44.986Z,101836.00
2019-01-04T13:59:16.078Z,101834.00
2019-01-04T14:01:47.131Z,101838.00
2019-01-04T14:04:18.148Z,101862.00
2019-01-04T14:06:48.975Z,101849.00
2019-01-04T14:09:20.857Z,101853.00
2019-01-04T14:11:51.812Z,101846.00
2019-01-04T14:14:22.758Z,101849.00
2019-01-04T14:16:53.696Z,101848.00
2019-01-04T14:19:24.728Z,101841.00
2019-01-04T14:21:55.696Z,101846.00
2019-01-04T14:24:27.274Z,101853.00
2019-01-04T14:26:58.242Z,101844.00
2019-01-04T14:29:29.226Z,101845.00
2019-01-04T14:32:00.146Z,101838.00
2019-01-04T14:34:31.058Z,101841.00
2019-01-04T14:37:02.009Z,101845.00
2019-01-04T14:39:32.952Z,101846.00
2019-01-04T14:42:03.911Z,101847.00
2019-01-04T14:44:35.023Z,101838.00
2019-01-04T14:47:06.050Z,101838.00
2019-01-04T14:49:37.067Z,101835.00
2019-01-04T14:52:07.974Z,101834.00
2019-01-04T14:54:38.948Z,101825.00
2019-01-04T14:57:09.868Z,101825.00
2019-01-04T14:59:42.508Z,101817.00
2019-01-04T15:02:16.596Z,101817.00
2019-01-04T15:04:47.556Z,101816.00
2019-01-04T15:07:18.533Z,101809.00
2019-01-04T15:09:49.572Z,101806.00
2019-01-04T15:12:20.518Z,101806.00
2019-01-04T15:14:51.616Z,101811.00
2019-01-04T15:17:22.649Z,101809.00
2019-01-04T15:19:54.473Z,101813.00
2019-01-04T15:22:25.616Z,101802.00
2019-01-04T15:24:56.688Z,101802.00
2019-01-04T15:27:30.965Z,101802.00
2019-01-04T15:30:01.918Z,101799.00
2019-01-04T15:32:32.850Z,101787.00
2019-01-04T15:35:03.848Z,101790.00
2019-01-04T15:37:34.708Z,101794.00
2019-01-04T15:40:07.152Z,101790.00
2019-01-04T15:42:38.248Z,101796.00
2019-01-04T15:45:10.510Z,101790.00
2019-01-04T15:47:41.517Z,101798.00
2019-01-04T15:50:13.664Z,101793.00
2019-01-04T15:52:46.501Z,101798.00
2019-01-04T15:55:19.031Z,101792.00
2019-01-04T15:57:50.007Z,101796.00
2019-01-04T16:00:21.349Z,101793.00
2019-01-04T16:02:52.812Z,101786.00
2019-01-04T16:05:23.818Z,101799.00
2019-01-04T16:07:55.450Z,101792.00
2019-01-04T16:10:26.346Z,101797.00
2019-01-04T16:12:57.590Z,101788.00
2019-01-04T16:15:30.109Z,101787.00
2019-01-04T16:18:00.968Z,101788.00
2019-01-04T16:20:33.449Z,101793.00
2019-01-04T16:23:04.912Z,101783.00
2019-01-04T16:25:35.941Z,101794.00
2019-01-04T16:28:07.286Z,101784.00
2019-01-04T16:30:38.469Z,101784.00
2019-01-04T16:33:09.352Z,101781.00
2019-01-04T16:35:40.387Z,101795.00
2019-01-04T16:38:11.383Z,101789.00
2019-01-04T16:40:42.426Z,101797.00
2019-01-04T16:43:13.623Z,101791.00
2019-01-04T16:45:45.786Z,101798.00
2019-01-04T16:48:20.127Z,101784.00
2019-01-04T16:50:53.593Z,101794.00
2019-01-04T16:53:31.009Z,101796.00
2019-01-04T16:56:05.169Z,101792.00
2019-01-04T16:58:36.159Z,101803.00
2019-01-04T17:01:08.771Z,101799.00
2019-01-04T17:03:42.793Z,101800.00
2019-01-04T17:06:14.034Z,101801.00
2019-01-04T17:08:45.512Z,101806.00
2019-01-04T17:11:16.491Z,101801.00
2019-01-04T17:13:47.769Z,101805.00
2019-01-04T17:16:18.786Z,101815.00
2019-01-04T17:18:49.861Z,101801.00
2019-01-04T17:21:21.848Z,101809.00
2019-01-04T17:23:52.933Z,101806.00
2019-01-04T17:26:28.631Z,101800.00
2019-01-04T17:28:59.527Z,101811.00
2019-01-04T17:31:30.412Z,101798.00
2019-01-04T17:34:01.396Z,101772.00
2019-01-04T17:36:32.410Z,101798.00
2019-01-04T17:39:04.310Z,101794.00
2019-01-04T17:41:35.733Z,101790.00
2019-01-04T17:44:06.671Z,101801.00
2019-01-04T17:46:37.809Z,101779.00
2019-01-04T17:49:08.792Z,101784.00
2019-01-04T17:51:39.791Z,101773.00
2019-01-04T17:54:10.646Z,101780.00
2019-01-04T17:56:41.743Z,101762.00
2019-01-04T17:59:12.694Z,101765.00
2019-01-04T18:01:43.706Z,101765.00
2019-01-04T18:04:14.647Z,101768.00
2019-01-04T18:06:45.835Z,101767.00
2019-01-04T18:09:16.691Z,101765.00
2019-01-04T18:11:47.678Z,101762.00
2019-01-04T18:14:18.653Z,101758.00
2019-01-04T18:16:49.695Z,101741.00
2019-01-04T18:19:20.738Z,101746.00
2019-01-04T18:21:51.902Z,101748.00
2019-01-04T18:24:23.097Z,101760.00
2019-01-04T18:26:54.110Z,101760.00
2019-01-04T18:29:25.181Z,101751.00
2019-01-04T18:31:56.191Z,101759.00
2019-01-04T18:34:27.624Z,101753.00
2019-01-04T18:36:58.698Z,101738.00
2019-01-04T18:39:30.029Z,101735.00
2019-01-04T18:42:01.334Z,101744.00
2019-01-04T18:44:32.542Z,101743.00
2019-01-04T18:47:03.636Z,101744.00
2019-01-04T18:49:34.653Z,101749.00
2019-01-04T18:52:05.766Z,101733.00
2019-01-04T18:54:36.848Z,101737.00
2019-01-04T18:57:07.855Z,101731.00
2019-01-04T18:59:39.231Z,101737.00
2019-01-04T19:02:10.179Z,101742.00
2019-01-04T19:04:41.144Z,101735.00
2019-01-04T19:07:12.154Z,101730.00
2019-01-04T19:09:43.060Z,101721.00
2019-01-04T19:12:14.358Z,101720.00
2019-01-04T19:14:46.896Z,101725.00
2019-01-04T19:17:18.057Z,101717.00
2019-01-04T19:19:53.209Z,101715.00
2019-01-04T19:22:26.453Z,101721.00
2019-01-04T19:24:57.432Z,101727.00
2019-01-04T19:27:28.701Z,101710.00
2019-01-04T19:29:59.725Z,101713.00
2019-01-04T19:32:30.824Z,101724.00
2019-01-04T19:35:01.734Z,101711.00
2019-01-04T19:37:33.084Z,101708.00
2019-01-04T19:40:04.766Z,101700.00
2019-01-04T19:42:36.173Z,101704.00
2019-01-04T19:45:08.792Z,101697.00
2019-01-04T19:47:40.303Z,101686.00
2019-01-04T19:50:23.518Z,101683.00
2019-01-04T19:52:54.566Z,101688.00
2019-01-04T19:55:25.552Z,101682.00
2019-01-04T19:57:59.627Z,101679.00
2019-01-04T20:00:32.906Z,101671.00
2019-01-04T20:03:04.047Z,101682.00
2019-01-04T20:07:19.833Z,101662.00
2019-01-04T20:10:54.906Z,101658.00
2019-01-04T20:14:53.006Z,101650.00
2019-01-04T20:17:43.924Z,101640.00
2019-01-04T20:20:34.134Z,101623.00
2019-01-04T20:23:24.055Z,101628.00
2019-01-04T20:26:26.063Z,101623.00
2019-01-04T20:29:21.062Z,101636.00
2019-01-04T20:32:18.625Z,101634.00
2019-01-04T20:35:17.626Z,101617.00
2019-01-04T20:38:11.056Z,101605.00
2019-01-04T20:40:59.917Z,101597.00
2019-01-04T20:43:53.580Z,101603.00
2019-01-04T20:47:00.159Z,101592.00
2019-01-04T20:50:05.332Z,101599.00
2019-01-04T20:52:52.503Z,101596.00
2019-01-04T20:55:47.176Z,101590.00
2019-01-04T20:58:30.102Z,101587.00
2019-01-04T21:01:28.249Z,101577.00
2019-01-04T21:04:31.371Z,101577.00
2019-01-04T21:07:29.388Z,101577.00
2019-01-04T21:10:23.007Z,101576.00
2019-01-04T21:13:13.022Z,101583.00
2019-01-04T21:16:01.898Z,101577.00
2019-01-04T21:19:09.364Z,101589.00
2019-01-04T21:22:01.386Z,101579.00
2019-01-04T21:24:55.943Z,101569.00
2019-01-04T21:27:47.813Z,101561.00
2019-01-04T21:30:40.465Z,101559.00
2019-01-04T21:33:30.838Z,101554.00
2019-01-04T21:36:25.997Z,101564.00
2019-01-04T21:39:14.752Z,101552.00
2019-01-04T21:41:57.026Z,101558.00
2019-01-04T21:44:46.705Z,101562.00
2019-01-04T21:47:35.104Z,101566.00
2019-01-04T21:50:25.714Z,101554.00
2019-01-04T21:53:08.379Z,101550.00
2019-01-04T21:55:56.839Z,101542.00
2019-01-04T21:58:48.433Z,101547.00
2019-01-04T22:01:37.079Z,101547.00
2019-01-04T22:04:33.188Z,101532.00
2019-01-04T22:07:35.437Z,101537.00
2019-01-04T22:10:28.693Z,101525.00
2019-01-04T22:13:18.832Z,101544.00
2019-01-04T22:16:03.966Z,101529.00
2019-01-04T22:18:52.919Z,101520.00
2019-01-04T22:21:41.559Z,101514.00
2019-01-04T22:24:31.535Z,101516.00
2019-01-04T22:27:25.744Z,101501.00
2019-01-04T22:30:06.914Z,101511.00
2019-01-04T22:33:03.719Z,101504.00
2019-01-04T22:36:04.993Z,101507.00
2019-01-04T22:38:53.622Z,101502.00
2019-01-04T22:41:44.115Z,101490.00
2019-01-04T22:44:45.995Z,101503.00
2019-01-04T22:47:42.255Z,101494.00
2019-01-04T22:50:41.359Z,101497.00
2019-01-04T22:53:33.154Z,101495.00
2019-01-04T22:56:23.297Z,101499.00
2019-01-04T22:59:28.152Z,101497.00
2019-01-04T23:02:27.167Z,101487.00
2019-01-04T23:05:19.566Z,101496.00
2019-01-04T23:08:12.537Z,101499.00
2019-01-04T23:11:09.605Z,101481.00
2019-01-04T23:13:59.648Z,101482.00
2019-01-04T23:16:49.191Z,101490.00
2019-01-04T23:19:39.134Z,101466.00
2019-01-04T23:22:58.723Z,101481.00
2019-01-04T23:25:57.045Z,101476.00
2019-01-04T23:28:53.066Z,101466.00
2019-01-04T23:31:52.099Z,101451.00
2019-01-04T23:34:40.671Z,101451.00
2019-01-04T23:37:30.027Z,101463.00
2019-01-04T23:40:18.779Z,101450.00
2019-01-04T23:43:10.261Z,101435.00
2019-01-04T23:46:10.869Z,101443.00
2019-01-04T23:48:59.736Z,101432.00
2019-01-04T23:51:42.611Z,101431.00
2019-01-04T23:54:26.467Z,101423.00
2019-01-04T23:57:17.134Z,101418.00
